Main page
METAR-TAF:

METAR-TAF

Airports :

Dayton–Wright Brothers Airport

Dayton, Ohio, United States

latitude: 39-35-20N, longitude: 084-13-29W, elevation: 958 ft

Current weather observation

The report was made 52 minutes ago, at 12:53 UTC
Wind 9 mph from the Southeast
Temperature 68°F
Humidity 94%
Pressure 29.96 in. Hg
Visibility: 10 miles
Broken clouds at a height of 3600 ft
Overcast at a height of 4200 ft

METAR: KMGY 281253Z AUTO 14008KT 10SM BKN036 OVC042 20/19 A2996 RMK AO2 RAB1155E09 SLP137 P0002 T02000189

Time: 09:45 (13:45 UTC)


TAF: missing

Weather observations and forecasts of more than 4000 airports (METAR and TAF reports).

The available stations are represented by yellow and red dots on the map.

Hover mouse over dot to see the name of the station.

Then click to see weather observations and forecasts.

To change the map : click on the green buttons with a black cross to zoom in, on the green button with a dash to zoom out, or on the green arrows for adjacent maps.


METAR-TAF: